KWVI/WVI METAR and TAF weather

Enter ICAO airport designator
Station Type Date Time Source
KWVI METAR 2020/07/04 00:53 UTC NOAA

KWVI 040053Z AUTO 22007KT 200V260 10SM CLR 17/12 A3004 RMK AO2 SLP172 T01670122


Station Type Date Time Source
KWVI Decoded METAR 2020/07/04 00:53 UTC NOAA

WATSONVILLE MUNICIPAL AIRPORT , CA, United States (KWVI) 36-56N 121-47W 43M
Jul 03, 2020 - 08:53 PM EDT / 2020.07.04 0053 UTC
Wind: from the SW (220 degrees) at 8 MPH (7 KT) (direction variable):0
Visibility: 10 mile(s):0
Sky conditions: clear
Temperature: 62.1 F (16.7 C)
Dew Point: 54.0 F (12.2 C)
Relative Humidity: 74%
Pressure (altimeter): 30.04 in. Hg (1017 hPa)
ob: KWVI 040053Z AUTO 22007KT 200V260 10SM CLR 17/12 A3004 RMK AO2 SLP172 T01670122
cycle: 1

Station Type Date Time Source
KWVI TAF UTC NOAA

Error!

Example: see airport list